Time;durP1;ratioP1;P1;durP2;ratioP2;P2;SDS_P1;SDS_P2;PMS_P1;PMS_P2;Temp;Humidity;BMP_temperature;BMP_pressure;BME280_temperature;BME280_humidity;BME280_pressure;Samples;Min_cycle;Max_cycle;Signal;HPM_P1;HPM_P2
2022/01/11 00:03:20;;;;;;;14.70;10.17;;;;;;;4.80;48.80;101950.69;10521767;28;20594;-85
2022/01/11 00:08:30;;;;;;;15.73;8.73;;;;;;;4.71;48.65;101953.88;10497516;28;20245;-86
2022/01/11 00:13:38;;;;;;;14.13;9.70;;;;;;;4.69;48.23;101958.81;10518542;28;20217;-85
2022/01/11 00:18:41;;;;;;;14.90;9.37;;;;;;;4.61;47.84;101956.44;10523305;28;20245;-86
2022/01/11 00:28:46;;;;;;;16.63;9.70;;;;;;;4.38;49.24;101967.56;10556375;28;20250;-85
2022/01/11 00:33:55;;;;;;;14.07;10.00;;;;;;;4.50;48.09;101979.53;10533004;28;20189;-85
2022/01/11 00:38:57;;;;;;;18.20;9.03;;;;;;;4.09;48.89;101980.41;10563708;28;20514;-85
2022/01/11 00:44:00;;;;;;;14.03;9.27;;;;;;;4.01;49.12;101969.63;10529927;28;20206;-85
2022/01/11 00:49:03;;;;;;;15.40;10.00;;;;;;;4.24;49.05;101969.72;10538179;28;20206;-84
2022/01/11 00:54:05;;;;;;;16.67;9.67;;;;;;;4.27;49.14;101962.81;10563028;28;20202;-84
2022/01/11 00:59:07;;;;;;;17.20;10.37;;;;;;;4.15;49.08;101970.25;10529099;28;20283;-85
2022/01/11 01:04:10;;;;;;;15.53;10.33;;;;;;;4.10;49.38;101972.94;10558727;28;20583;-85
2022/01/11 01:09:12;;;;;;;16.00;9.43;;;;;;;4.10;49.28;101972.94;10515617;28;20288;-85
2022/01/11 01:14:21;;;;;;;16.93;9.60;;;;;;;4.31;48.06;101961.25;10509531;28;20199;-85
2022/01/11 01:19:27;;;;;;;17.33;9.23;;;;;;;4.07;48.87;101968.69;10510175;28;20222;-85
2022/01/11 01:24:31;;;;;;;15.53;9.10;;;;;;;3.91;48.87;101980.47;10528660;28;20198;-85
2022/01/11 01:29:34;;;;;;;15.30;9.60;;;;;;;4.02;48.71;101986.06;10510215;28;20198;-85
2022/01/11 01:34:36;;;;;;;15.00;9.47;;;;;;;4.31;48.01;101980.72;10528174;28;20195;-85
2022/01/11 01:39:38;;;;;;;16.00;10.30;;;;;;;3.95;48.41;101988.13;10527740;28;20543;-85
2022/01/11 01:44:41;;;;;;;14.33;9.80;;;;;;;3.71;48.67;101999.41;10506329;28;20207;-85
2022/01/11 01:49:43;;;;;;;15.37;9.17;;;;;;;4.08;48.31;101991.78;10515516;28;20199;-85
2022/01/11 01:54:45;;;;;;;17.60;9.63;;;;;;;3.97;48.17;102013.75;10526246;28;20206;-85
2022/01/11 01:59:48;;;;;;;14.73;9.70;;;;;;;3.86;48.48;102013.72;10513153;28;20276;-85
2022/01/11 02:04:52;;;;;;;15.80;9.40;;;;;;;3.80;49.84;102023.00;10498482;28;20207;-85
2022/01/11 02:09:55;;;;;;;17.80;9.73;;;;;;;3.82;49.72;102018.91;10503602;28;20240;-85
2022/01/11 02:14:57;;;;;;;17.50;10.57;;;;;;;3.98;49.24;102021.03;10506812;28;20276;-85
2022/01/11 02:20:00;;;;;;;14.77;10.00;;;;;;;3.91;48.00;102031.38;10517016;28;20242;-85
2022/01/11 02:25:03;;;;;;;16.87;9.80;;;;;;;3.75;49.30;102034.81;10550624;28;20206;-85
2022/01/11 02:30:07;;;;;;;14.20;9.50;;;;;;;3.83;49.41;102036.44;10567662;28;20182;-85
2022/01/11 02:35:11;;;;;;;18.67;10.07;;;;;;;3.96;48.04;102039.88;10534440;28;20259;-85
2022/01/11 02:40:15;;;;;;;15.87;9.80;;;;;;;3.75;48.93;102032.03;10538834;28;20625;-85
2022/01/11 02:45:19;;;;;;;15.83;8.70;;;;;;;3.81;48.00;102038.59;10515687;28;20214;-85
2022/01/11 02:50:24;;;;;;;14.67;9.90;;;;;;;3.38;48.71;102047.91;10508156;28;20194;-85
2022/01/11 02:55:27;;;;;;;13.60;9.47;;;;;;;3.54;48.00;102052.00;10508331;28;20248;-85
2022/01/11 03:00:30;;;;;;;16.97;9.37;;;;;;;3.54;48.84;102052.00;10510355;28;20622;-85
2022/01/11 03:05:33;;;;;;;13.87;8.47;;;;;;;3.55;47.96;102053.69;10516019;28;20260;-85
2022/01/11 03:10:36;;;;;;;14.97;9.50;;;;;;;3.83;47.75;102055.91;10491502;28;20248;-84
2022/01/11 03:15:41;;;;;;;17.47;9.33;;;;;;;3.54;48.66;102052.00;10497865;28;20226;-85
2022/01/11 03:20:48;;;;;;;15.80;8.67;;;;;;;3.47;47.84;102056.81;10533713;28;20231;-85
2022/01/11 03:25:52;;;;;;;12.90;8.73;;;;;;;2.52;50.99;102076.56;10509424;28;20255;-85
2022/01/11 03:30:55;;;;;;;15.17;9.07;;;;;;;3.23;49.36;102055.78;10542691;28;20213;-85
2022/01/11 03:35:59;;;;;;;13.67;8.67;;;;;;;3.58;48.65;102065.22;10556164;28;20254;-85
2022/01/11 03:41:03;;;;;;;15.97;9.27;;;;;;;3.66;48.01;102061.25;10556608;28;20222;-85
2022/01/11 03:46:05;;;;;;;14.53;8.50;;;;;;;2.80;49.04;102055.81;10540141;28;20224;-85
2022/01/11 03:51:09;;;;;;;13.97;8.40;;;;;;;2.96;48.86;102052.44;10571447;28;20223;-85
2022/01/11 03:56:40;;;;;;;11.13;7.17;;;;;;;3.34;47.69;102057.81;10534913;28;20502;-86
2022/01/11 04:01:56;;;;;;;11.07;8.07;;;;;;;3.55;48.37;102056.47;10532436;28;20514;-86
2022/01/11 04:07:01;;;;;;;13.50;8.27;;;;;;;3.73;47.71;102055.63;10528130;28;20276;-85
2022/01/11 04:12:05;;;;;;;11.33;7.63;;;;;;;3.62;47.67;102060.00;10488065;28;20260;-85
2022/01/11 04:17:08;;;;;;;12.50;7.37;;;;;;;3.63;47.41;102061.69;10489787;28;20239;-85
2022/01/11 04:22:10;;;;;;;14.23;8.23;;;;;;;3.20;47.07;102065.44;10513823;28;20475;-85
2022/01/11 04:27:13;;;;;;;11.17;6.83;;;;;;;3.36;47.82;102072.28;10513257;28;20538;-85
2022/01/11 04:32:15;;;;;;;12.63;7.67;;;;;;;3.15;47.63;102073.59;10496268;28;20202;-85
2022/01/11 04:37:18;;;;;;;13.30;7.50;;;;;;;3.78;47.05;102075.19;10512951;28;20211;-85
2022/01/11 04:42:21;;;;;;;11.83;7.87;;;;;;;3.28;47.50;102076.25;10529093;28;20775;-85
2022/01/11 04:47:23;;;;;;;10.83;7.80;;;;;;;3.16;47.92;102072.53;10512287;28;20660;-85
2022/01/11 04:52:26;;;;;;;13.37;7.57;;;;;;;2.98;47.95;102075.28;10512054;28;20199;-85
2022/01/11 04:57:28;;;;;;;11.17;7.00;;;;;;;2.65;49.02;102081.16;10495607;28;20509;-85
2022/01/11 05:02:31;;;;;;;12.07;8.10;;;;;;;2.62;48.45;102086.28;10495360;28;20222;-85
2022/01/11 05:07:33;;;;;;;12.60;7.00;;;;;;;2.73;48.64;102082.78;10495645;28;20244;-85
2022/01/11 05:12:38;;;;;;;14.50;8.33;;;;;;;2.82;48.90;102085.06;10495523;28;20226;-85
2022/01/11 05:17:42;;;;;;;12.03;8.33;;;;;;;2.88;48.93;102094.38;10501294;28;20279;-85
2022/01/11 05:22:45;;;;;;;10.13;7.10;;;;;;;2.37;50.72;102095.44;10489255;28;20230;-85
2022/01/11 05:27:48;;;;;;;13.20;7.20;;;;;;;2.82;49.01;102092.53;10550796;28;20228;-84
2022/01/11 05:32:52;;;;;;;12.30;7.07;;;;;;;2.89;49.04;102104.41;10536149;28;20251;-86
2022/01/11 05:37:55;;;;;;;10.50;7.03;;;;;;;2.78;48.53;102103.22;10544770;28;20202;-85
2022/01/11 05:42:58;;;;;;;11.53;7.03;;;;;;;2.86;48.75;102104.88;10544596;28;20569;-85
2022/01/11 05:48:03;;;;;;;12.97;7.10;;;;;;;2.89;49.52;102115.53;10537539;28;20186;-85
2022/01/11 05:53:08;;;;;;;12.93;7.67;;;;;;;2.84;48.21;102118.97;10545235;28;20202;-87
2022/01/11 05:58:10;;;;;;;11.70;7.17;;;;;;;2.73;49.03;102129.97;10535452;28;20502;-85
2022/01/11 06:03:13;;;;;;;10.40;7.10;;;;;;;2.25;49.13;102127.72;10490917;28;20279;-87
2022/01/11 06:08:20;;;;;;;12.90;6.90;;;;;;;2.76;47.84;102123.97;10514103;28;20253;-85
2022/01/11 06:13:24;;;;;;;10.33;6.27;;;;;;;2.22;48.25;102130.94;10502511;28;20236;-84
2022/01/11 06:18:29;;;;;;;14.03;6.70;;;;;;;2.77;48.60;102117.34;10523695;28;20222;-85
2022/01/11 06:23:53;;;;;;;10.73;7.10;;;;;;;2.59;49.24;102132.84;10520895;28;20219;-81
2022/01/11 06:28:56;;;;;;;10.20;6.27;;;;;;;2.63;48.09;102132.38;10498515;28;20203;-81
2022/01/11 06:33:59;;;;;;;10.17;6.43;;;;;;;2.36;48.57;102142.81;10504216;28;20199;-82
2022/01/11 06:39:02;;;;;;;11.27;6.63;;;;;;;2.56;48.49;102144.41;10496277;28;20259;-82
2022/01/11 06:44:09;;;;;;;12.47;6.80;;;;;;;2.17;48.93;102155.72;10468750;28;20570;-84
2022/01/11 06:49:13;;;;;;;13.10;7.20;;;;;;;2.27;49.65;102158.00;10502899;28;20260;-82
2022/01/11 06:54:15;;;;;;;11.43;7.10;;;;;;;1.74;51.73;102161.03;10511349;28;20202;-82
2022/01/11 06:59:19;;;;;;;14.27;6.87;;;;;;;2.02;50.49;102163.47;10505896;28;20218;-83
2022/01/11 07:04:22;;;;;;;10.07;6.03;;;;;;;1.68;50.84;102168.28;10521570;28;20229;-83
2022/01/11 07:09:29;;;;;;;9.67;5.97;;;;;;;2.11;50.67;102167.69;10533678;28;20564;-82
2022/01/11 07:14:32;;;;;;;9.23;5.13;;;;;;;1.75;51.06;102171.88;10567649;28;20198;-83
2022/01/11 07:19:35;;;;;;;12.20;6.23;;;;;;;2.08;50.52;102173.66;10523978;28;20259;-82
2022/01/11 07:24:43;;;;;;;9.47;6.17;;;;;;;2.12;50.45;102174.94;10533073;28;20283;-83
2022/01/11 07:29:46;;;;;;;9.87;5.83;;;;;;;2.19;50.80;102178.50;10505678;28;20592;-82
2022/01/11 07:34:49;;;;;;;9.80;5.83;;;;;;;2.32;50.05;102180.38;10541623;28;20264;-84
2022/01/11 07:39:52;;;;;;;10.27;6.60;;;;;;;2.41;50.36;102184.63;10552651;28;20243;-81
2022/01/11 07:44:54;;;;;;;9.63;5.67;;;;;;;2.33;49.73;102182.94;10520159;28;20310;-83
2022/01/11 07:49:59;;;;;;;6.33;4.10;;;;;;;2.64;49.38;102186.81;10528593;28;20610;-83
2022/01/11 07:55:04;;;;;;;7.83;5.67;;;;;;;2.28;50.23;102204.94;10510762;28;20209;-82
2022/01/11 08:00:07;;;;;;;9.13;5.47;;;;;;;2.35;49.86;102202.13;10547522;28;20226;-82
2022/01/11 08:05:27;;;;;;;6.87;4.67;;;;;;;2.59;49.50;102204.97;10539932;28;20282;-82
2022/01/11 08:10:32;;;;;;;7.43;4.53;;;;;;;2.56;49.66;102216.53;10549211;28;20248;-82
2022/01/11 08:15:37;;;;;;;7.53;4.27;;;;;;;2.79;49.20;102204.00;10546468;28;20690;-83
2022/01/11 08:20:40;;;;;;;10.53;4.37;;;;;;;2.95;48.96;102211.78;10540129;28;20565;-82
2022/01/11 08:25:45;;;;;;;6.60;4.80;;;;;;;3.09;48.54;102209.75;10546990;28;20206;-83
2022/01/11 08:30:48;;;;;;;5.43;4.07;;;;;;;3.39;48.41;102209.91;10528707;28;20242;-82
2022/01/11 08:35:52;;;;;;;10.10;3.70;;;;;;;3.56;47.98;102213.78;10526695;28;20210;-83
2022/01/11 08:40:57;;;;;;;9.13;3.33;;;;;;;3.51;48.78;102216.41;10536465;28;20226;-84
2022/01/11 08:46:04;;;;;;;6.20;3.90;;;;;;;3.50;48.62;102223.03;10522463;28;21960;-82
2022/01/11 08:51:19;;;;;;;7.43;3.80;;;;;;;3.81;47.80;102231.28;10511581;28;20511;-82
2022/01/11 08:56:22;;;;;;;8.20;4.47;;;;;;;3.65;48.70;102240.19;10525756;28;20210;-82
2022/01/11 09:01:27;;;;;;;9.20;5.90;;;;;;;3.31;49.89;102242.47;10513408;28;20302;-82
2022/01/11 09:06:31;;;;;;;12.20;7.13;;;;;;;4.11;48.15;102236.94;10530675;28;20276;-81
2022/01/11 09:11:53;;;;;;;8.97;6.47;;;;;;;4.32;47.45;102230.06;10527621;28;20198;-82
2022/01/11 09:16:57;;;;;;;11.33;6.83;;;;;;;4.33;47.29;102238.16;10520372;28;20298;-82
2022/01/11 09:22:00;;;;;;;11.70;6.10;;;;;;;4.35;46.73;102241.56;10512972;28;20267;-82
2022/01/11 09:27:09;;;;;;;9.53;7.53;;;;;;;4.39;48.17;102240.00;10511164;28;20206;-81
2022/01/11 09:32:14;;;;;;;9.60;5.40;;;;;;;4.85;46.62;102246.84;10490757;28;20194;-82
2022/01/11 09:37:18;;;;;;;9.83;5.70;;;;;;;4.70;46.95;102246.44;10499708;28;20598;-83
2022/01/11 09:42:20;;;;;;;8.30;5.20;;;;;;;5.00;46.28;102254.78;10491327;28;20278;-83
2022/01/11 09:47:22;;;;;;;9.73;5.30;;;;;;;5.24;46.76;102248.16;10550095;28;20541;-83
2022/01/11 09:52:27;;;;;;;7.13;4.57;;;;;;;4.93;46.26;102251.22;10516498;28;20198;-82
2022/01/11 09:57:30;;;;;;;7.50;4.40;;;;;;;5.14;45.72;102247.91;10545777;28;20206;-83
2022/01/11 10:03:09;;;;;;;7.33;4.50;;;;;;;5.25;46.03;102244.28;10538480;28;20264;-84
2022/01/11 10:08:28;;;;;;;8.23;4.67;;;;;;;5.36;45.95;102246.25;10505697;28;20279;-83
2022/01/11 10:13:37;;;;;;;11.77;5.00;;;;;;;5.46;46.03;102235.34;10516452;28;20210;-84
2022/01/11 10:18:46;;;;;;;10.37;5.20;;;;;;;5.91;45.75;102231.97;10550685;28;20642;-83
2022/01/11 10:23:50;;;;;;;9.60;5.07;;;;;;;5.68;46.55;102238.41;10523571;28;20245;-83
2022/01/11 10:28:55;;;;;;;9.73;5.47;;;;;;;5.84;46.66;102236.81;10527999;28;20202;-83
2022/01/11 10:34:02;;;;;;;8.57;4.97;;;;;;;6.17;46.51;102241.75;10516329;28;20587;-83
2022/01/11 10:39:29;;;;;;;7.47;5.00;;;;;;;6.69;45.18;102244.50;10526620;28;20206;-83
2022/01/11 10:44:51;;;;;;;8.43;5.13;;;;;;;6.99;44.80;102241.41;10498195;28;20226;-83
2022/01/11 10:50:00;;;;;;;6.87;4.03;;;;;;;6.92;45.12;102233.19;10510747;28;20202;-84
2022/01/11 10:55:05;;;;;;;8.83;4.33;;;;;;;7.03;44.66;102245.41;10519207;28;20199;-83
2022/01/11 11:00:19;;;;;;;4.07;3.23;;;;;;;7.15;44.54;102237.84;10520908;28;20198;-83
2022/01/11 11:05:31;;;;;;;4.23;2.37;;;;;;;7.81;42.53;102233.31;10543386;28;20259;-83
2022/01/11 11:10:58;;;;;;;5.00;2.40;;;;;;;7.75;42.31;102248.34;10549476;28;20494;-84
2022/01/11 11:16:16;;;;;;;7.80;3.00;;;;;;;7.91;42.74;102250.25;10535397;28;20218;-84
2022/01/11 11:21:26;;;;;;;5.03;2.57;;;;;;;7.57;44.18;102253.09;10520839;28;20230;-84
2022/01/11 11:26:32;;;;;;;6.27;3.43;;;;;;;8.40;42.53;102256.00;10532193;28;20582;-84
2022/01/11 11:31:34;;;;;;;7.37;3.70;;;;;;;7.86;43.93;102261.38;10531872;28;20182;-84
2022/01/11 11:36:40;;;;;;;8.00;3.23;;;;;;;8.37;42.79;102251.72;10540586;28;20198;-84
2022/01/11 11:41:49;;;;;;;8.27;3.77;;;;;;;7.66;44.12;102261.91;10522012;28;20253;-85
2022/01/11 11:46:55;;;;;;;6.70;3.00;;;;;;;7.62;44.03;102248.69;10526603;28;20203;-84
2022/01/11 11:52:06;;;;;;;8.33;3.70;;;;;;;7.92;43.58;102243.53;10542543;28;20248;-85
2022/01/11 11:57:10;;;;;;;7.90;4.07;;;;;;;8.05;43.43;102245.97;10503576;28;20507;-84
2022/01/11 12:02:12;;;;;;;6.37;3.00;;;;;;;7.83;43.87;102250.69;10503007;28;20299;-84
2022/01/11 12:07:35;;;;;;;3.73;2.80;;;;;;;8.31;43.12;102253.59;10517831;28;20247;-84
2022/01/11 12:12:39;;;;;;;4.37;2.70;;;;;;;8.05;43.47;102233.91;10505574;28;20591;-86
2022/01/11 12:17:43;;;;;;;5.90;2.57;;;;;;;8.52;42.17;102231.50;10521631;28;20712;-85
2022/01/11 12:22:53;;;;;;;10.03;2.57;;;;;;;8.68;41.75;102235.31;10526175;28;20563;-85
2022/01/11 12:28:03;;;;;;;7.23;2.97;;;;;;;9.20;41.07;102232.75;10519041;28;20236;-85
2022/01/11 12:33:22;;;;;;;5.40;2.33;;;;;;;9.21;40.21;102228.84;10499715;28;20545;-85
2022/01/11 12:38:26;;;;;;;4.63;2.23;;;;;;;9.25;40.54;102218.78;10516241;28;20251;-84
2022/01/11 12:43:40;;;;;;;4.13;1.90;;;;;;;8.56;40.44;102221.44;10507714;28;20253;-85
2022/01/11 12:48:49;;;;;;;4.53;2.13;;;;;;;8.71;41.42;102213.22;10505549;28;20210;-85
2022/01/11 12:54:17;;;;;;;5.60;1.90;;;;;;;8.91;40.04;102212.59;10536775;28;20252;-85
2022/01/11 12:59:21;;;;;;;4.70;1.90;;;;;;;8.20;41.17;102214.53;10511105;28;20233;-84
2022/01/11 13:04:45;;;;;;;4.17;1.63;;;;;;;8.42;40.95;102209.78;10505363;28;20314;-84
2022/01/11 13:10:01;;;;;;;4.13;1.90;;;;;;;9.00;40.81;102222.19;10536095;28;20666;-84
2022/01/11 13:15:31;;;;;;;6.57;1.80;;;;;;;7.94;42.69;102208.59;10503821;28;20222;-84
2022/01/11 13:20:42;;;;;;;6.47;2.10;;;;;;;8.31;42.20;102202.34;10518844;28;20202;-84
2022/01/11 13:25:55;;;;;;;4.10;2.30;;;;;;;8.12;42.84;102204.66;10538535;28;20561;-84
2022/01/11 13:30:57;;;;;;;5.03;2.30;;;;;;;7.67;42.87;102213.25;10481493;28;20210;-84
2022/01/11 13:36:08;;;;;;;3.80;1.90;;;;;;;7.83;42.98;102205.91;10486392;28;20202;-83
2022/01/11 13:41:12;;;;;;;3.87;2.23;;;;;;;8.05;42.49;102209.56;10529093;28;20214;-84
2022/01/11 13:46:43;;;;;;;4.93;1.80;;;;;;;9.61;40.03;102201.13;10521458;28;20194;-85
2022/01/11 13:51:48;;;;;;;2.50;1.80;;;;;;;8.34;41.67;102201.84;10513193;28;20210;-84
2022/01/11 13:56:54;;;;;;;3.40;1.97;;;;;;;8.79;40.33;102204.34;10524377;28;20267;-85
2022/01/11 14:02:06;;;;;;;6.07;2.00;;;;;;;8.64;40.53;102212.59;10535690;28;20274;-85
2022/01/11 14:07:11;;;;;;;6.10;1.60;;;;;;;8.71;40.64;102206.75;10543130;28;20283;-84
2022/01/11 14:12:22;;;;;;;4.70;1.40;;;;;;;8.36;40.90;102205.22;10517506;28;20207;-84
2022/01/11 14:17:44;;;;;;;5.73;1.67;;;;;;;8.67;39.99;102214.84;10505340;28;20572;-87
2022/01/11 14:22:51;;;;;;;3.63;1.30;;;;;;;8.57;40.14;102214.72;10497994;28;20275;-84
2022/01/11 14:28:05;;;;;;;4.80;1.37;;;;;;;8.54;39.80;102215.28;10497020;28;20260;-86
2022/01/11 14:33:26;;;;;;;4.50;1.60;;;;;;;9.00;38.85;102223.06;10532420;28;20194;-85
2022/01/11 14:38:44;;;;;;;5.93;1.27;;;;;;;9.49;38.06;102222.91;10529080;28;20249;-86
2022/01/11 14:44:22;;;;;;;4.53;1.30;;;;;;;9.25;38.07;102228.03;10515884;28;20245;-83
2022/01/11 14:49:27;;;;;;;2.17;1.27;;;;;;;9.43;37.78;102228.75;10479594;28;20249;-85
2022/01/11 14:54:32;;;;;;;4.10;1.40;;;;;;;9.22;38.12;102227.72;10525006;28;20182;-83
2022/01/11 14:59:36;;;;;;;2.47;1.57;;;;;;;9.03;38.23;102230.09;10530919;28;20569;-83
2022/01/11 15:04:41;;;;;;;3.47;1.43;;;;;;;9.54;37.44;102228.56;10516270;28;20250;-84
2022/01/11 15:09:45;;;;;;;5.60;1.60;;;;;;;9.70;37.04;102227.59;10531701;28;20222;-84
2022/01/11 15:14:53;;;;;;;4.77;1.23;;;;;;;9.15;38.37;102225.16;10498720;28;20303;-84
2022/01/11 15:19:58;;;;;;;2.43;1.00;;;;;;;9.23;38.65;102230.25;10514330;28;20198;-85
2022/01/11 15:25:04;;;;;;;3.00;1.10;;;;;;;8.41;39.46;102235.28;10545504;28;20276;-84
2022/01/11 15:30:09;;;;;;;1.87;1.03;;;;;;;9.05;38.66;102243.84;10516972;28;20639;-87
2022/01/11 15:35:12;;;;;;;4.93;1.33;;;;;;;8.97;38.81;102246.00;10520140;28;20267;-86
2022/01/11 15:40:14;;;;;;;3.50;1.20;;;;;;;9.00;38.84;102239.88;10519829;28;20261;-85
2022/01/11 15:45:16;;;;;;;1.93;1.43;;;;;;;8.39;39.56;102226.28;10517619;28;20785;-85
2022/01/11 15:50:19;;;;;;;4.40;2.17;;;;;;;8.98;38.60;102239.28;10522263;28;20199;-85
2022/01/11 15:55:21;;;;;;;3.90;2.47;;;;;;;8.89;39.29;102249.28;10504476;28;20499;-85
2022/01/11 16:00:23;;;;;;;5.13;2.60;;;;;;;8.96;38.55;102244.31;10519195;28;20294;-85
2022/01/11 16:05:26;;;;;;;3.73;2.77;;;;;;;8.95;38.73;102253.81;10516370;28;20274;-85
2022/01/11 16:10:28;;;;;;;3.87;1.90;;;;;;;9.06;38.38;102253.97;10486711;28;20283;-86
2022/01/11 16:15:30;;;;;;;4.67;2.00;;;;;;;9.01;38.59;102264.00;10517548;28;20218;-85
2022/01/11 16:20:33;;;;;;;5.20;1.77;;;;;;;9.07;37.97;102264.03;10501302;28;20595;-84
2022/01/11 16:25:35;;;;;;;3.37;1.83;;;;;;;8.81;38.57;102258.16;10521912;28;20242;-87
2022/01/11 16:30:40;;;;;;;3.03;1.60;;;;;;;8.27;39.79;102263.66;10486545;28;20239;-84
2022/01/11 16:35:44;;;;;;;4.17;1.57;;;;;;;8.32;39.88;102265.66;10501818;28;20678;-84
2022/01/11 16:46:07;;;;;;;5.20;3.20;;;;;;;8.16;40.30;102266.53;10518638;28;20303;-83
2022/01/11 16:51:10;;;;;;;10.27;5.50;;;;;;;7.92;40.55;102271.53;10510381;28;20234;-82
2022/01/11 16:56:12;;;;;;;8.33;5.50;;;;;;;8.03;40.93;102273.38;10515195;28;20234;-85
2022/01/11 17:01:15;;;;;;;9.60;6.10;;;;;;;7.78;41.29;102270.19;10514686;28;20222;-85
2022/01/11 17:06:18;;;;;;;4.77;3.50;;;;;;;7.87;42.60;102271.47;10526636;28;20215;-83
2022/01/11 17:11:20;;;;;;;7.10;3.37;;;;;;;7.73;42.17;102278.53;10500600;28;20234;-82
2022/01/11 17:16:22;;;;;;;7.53;2.40;;;;;;;7.69;41.63;102289.38;10515220;28;20650;-83
2022/01/11 17:21:25;;;;;;;5.40;2.40;;;;;;;7.56;42.86;102284.13;10499775;28;20291;-83
2022/01/11 17:26:27;;;;;;;3.57;2.43;;;;;;;7.19;42.84;102297.72;10514120;28;20443;-83
2022/01/11 17:31:32;;;;;;;3.73;2.37;;;;;;;7.24;43.46;102292.25;10516479;28;20226;-83
2022/01/11 17:36:35;;;;;;;4.37;2.70;;;;;;;7.01;42.82;102303.50;10486343;28;20197;-83
2022/01/11 17:41:38;;;;;;;4.33;2.40;;;;;;;6.93;43.21;102310.34;10484160;28;20207;-84
2022/01/11 17:46:40;;;;;;;4.37;2.97;;;;;;;6.95;43.54;102321.28;10497457;28;20279;-83
2022/01/11 17:51:43;;;;;;;5.03;2.80;;;;;;;6.70;42.75;102330.00;10525510;28;20286;-84
2022/01/11 17:56:48;;;;;;;6.40;3.13;;;;;;;6.98;42.14;102331.97;10522736;28;20580;-83
2022/01/11 18:01:52;;;;;;;4.03;2.70;;;;;;;6.79;42.76;102339.66;10517854;28;20199;-82
2022/01/11 18:06:56;;;;;;;7.77;3.27;;;;;;;6.55;43.00;102343.63;10490594;28;20249;-83
2022/01/11 18:11:59;;;;;;;5.30;3.40;;;;;;;6.39;43.49;102350.81;10501628;28;20202;-84
2022/01/11 18:17:01;;;;;;;5.93;3.93;;;;;;;6.13;43.98;102357.75;10493869;28;20492;-83
2022/01/11 18:22:04;;;;;;;5.23;3.17;;;;;;;6.13;44.14;102353.03;10501446;28;20256;-83
2022/01/11 18:27:07;;;;;;;9.30;4.60;;;;;;;6.07;44.13;102350.38;10484227;28;20234;-82
2022/01/11 18:32:13;;;;;;;6.47;3.93;;;;;;;5.95;44.34;102361.50;10500474;28;20220;-83
2022/01/11 18:37:15;;;;;;;7.43;4.50;;;;;;;5.89;44.85;102362.47;10501059;28;20202;-83
2022/01/11 18:42:17;;;;;;;6.47;4.03;;;;;;;5.74;45.00;102376.00;10518359;28;20198;-83
2022/01/11 18:47:19;;;;;;;9.43;4.17;;;;;;;5.92;44.73;102381.53;10503522;28;20307;-84
2022/01/11 18:52:22;;;;;;;5.20;4.13;;;;;;;5.88;45.06;102387.81;10492280;28;20210;-83
2022/01/11 18:57:25;;;;;;;9.73;4.90;;;;;;;6.22;43.77;102388.91;10483820;28;20206;-84
2022/01/11 19:02:27;;;;;;;9.07;5.70;;;;;;;6.11;44.14;102388.69;10516248;28;20210;-86
2022/01/11 19:07:30;;;;;;;6.63;5.13;;;;;;;6.26;44.45;102384.56;10508603;28;20631;-86
2022/01/11 19:12:34;;;;;;;7.20;4.90;;;;;;;6.03;44.66;102383.47;10481715;28;20503;-85
2022/01/11 19:17:37;;;;;;;8.47;4.07;;;;;;;6.26;44.70;102385.41;10499374;28;20279;-84
2022/01/11 19:22:39;;;;;;;4.70;2.87;;;;;;;6.25;43.93;102378.13;10496989;28;20207;-84
2022/01/11 19:27:42;;;;;;;4.27;2.70;;;;;;;5.99;43.79;102378.59;10504997;28;20562;-84
2022/01/11 19:32:44;;;;;;;6.43;2.70;;;;;;;6.61;42.92;102376.13;10482344;28;20203;-83
2022/01/11 19:37:49;;;;;;;3.17;2.10;;;;;;;6.70;41.99;102377.47;10514107;28;20207;-84
2022/01/11 19:42:51;;;;;;;2.30;1.70;;;;;;;6.71;41.92;102382.81;10507049;28;20583;-84
2022/01/11 19:47:55;;;;;;;3.57;1.97;;;;;;;6.71;42.15;102388.41;10507883;28;20293;-84
2022/01/11 19:52:59;;;;;;;2.67;1.83;;;;;;;6.57;42.47;102377.75;10506299;28;20206;-83
2022/01/11 19:58:01;;;;;;;3.83;2.33;;;;;;;6.09;43.15;102385.28;10523722;28;20583;-84
2022/01/11 20:03:04;;;;;;;2.53;1.80;;;;;;;6.21;43.22;102387.22;10527866;28;20557;-84
2022/01/11 20:08:08;;;;;;;2.43;1.90;;;;;;;6.19;43.42;102386.63;10490284;28;20286;-84
2022/01/11 20:13:10;;;;;;;4.53;2.00;;;;;;;6.81;41.93;102383.03;10489350;28;20199;-84
2022/01/11 20:18:14;;;;;;;2.93;2.10;;;;;;;6.81;41.79;102371.84;10505322;28;20234;-84
2022/01/11 20:28:46;;;;;;;3.13;2.43;;;;;;;6.55;42.57;102394.75;10524319;28;20229;-84
2022/01/11 20:33:49;;;;;;;3.57;2.17;;;;;;;6.94;41.03;102398.66;10533431;28;20210;-85
2022/01/11 20:38:51;;;;;;;3.27;2.30;;;;;;;6.76;40.90;102396.88;10547875;28;20187;-86
2022/01/11 20:43:54;;;;;;;5.40;2.20;;;;;;;6.75;41.48;102394.31;10523862;28;20239;-83
2022/01/11 20:49:00;;;;;;;12.77;7.37;;;;;;;7.08;40.82;102393.66;10505107;28;20210;-83
2022/01/11 20:54:02;;;;;;;4.90;2.60;;;;;;;6.77;42.03;102393.00;10495140;28;20667;-85
2022/01/11 20:59:04;;;;;;;3.00;1.73;;;;;;;6.44;42.24;102398.41;10521456;28;20212;-85
2022/01/11 21:04:07;;;;;;;5.53;2.23;;;;;;;6.77;42.17;102406.09;10517400;28;20250;-83
2022/01/11 21:09:09;;;;;;;3.57;1.60;;;;;;;6.77;41.26;102408.91;10499190;28;20287;-84
2022/01/11 21:14:13;;;;;;;3.47;1.80;;;;;;;6.66;42.25;102413.41;10499581;28;20268;-82
2022/01/11 21:24:36;;;;;;;3.57;2.27;;;;;;;7.14;40.65;102424.25;10529358;28;20300;-82
2022/01/11 21:29:39;;;;;;;3.80;2.00;;;;;;;7.24;40.96;102421.66;10482851;28;20702;-83
2022/01/11 21:34:43;;;;;;;3.07;2.03;;;;;;;7.27;40.74;102402.69;10525475;28;20207;-83
2022/01/11 21:39:45;;;;;;;3.27;2.07;;;;;;;7.03;41.31;102413.94;10515443;28;20202;-85
2022/01/11 21:44:48;;;;;;;4.07;2.20;;;;;;;6.83;41.78;102422.75;10503197;28;20303;-85
2022/01/11 21:49:51;;;;;;;4.70;2.20;;;;;;;7.28;41.52;102422.03;10514957;28;20237;-85
2022/01/11 21:54:54;;;;;;;3.33;1.70;;;;;;;7.22;41.26;102417.44;10529972;28;20190;-85
2022/01/11 21:59:56;;;;;;;2.87;1.90;;;;;;;6.73;41.87;102425.28;10502063;28;20203;-85
2022/01/11 22:04:58;;;;;;;6.90;2.50;;;;;;;7.29;40.88;102418.13;10503717;28;20218;-84
2022/01/11 22:10:02;;;;;;;4.57;2.23;;;;;;;7.33;40.98;102419.34;10516485;28;20299;-85
2022/01/11 22:20:16;;;;;;;3.60;2.47;;;;;;;7.20;40.79;102431.66;10502588;28;20202;-84
2022/01/11 22:25:18;;;;;;;5.27;3.13;;;;;;;6.64;41.95;102443.53;10501043;28;20858;-85
2022/01/11 22:30:21;;;;;;;5.70;2.70;;;;;;;6.64;41.74;102443.53;10518418;28;20194;-84
2022/01/11 22:35:23;;;;;;;2.40;1.83;;;;;;;6.39;42.74;102443.78;10500414;28;20194;-84
2022/01/11 22:40:26;;;;;;;4.23;2.00;;;;;;;6.15;43.67;102431.78;10517335;28;20210;-84
2022/01/11 22:45:28;;;;;;;3.90;2.33;;;;;;;6.09;43.40;102441.09;10510065;28;20218;-82
2022/01/11 22:50:31;;;;;;;2.70;1.60;;;;;;;7.05;41.48;102444.44;10515055;28;20211;-83
2022/01/11 22:55:33;;;;;;;3.33;2.13;;;;;;;6.05;43.17;102451.06;10543624;28;20194;-82
2022/01/11 23:00:58;;;;;;;3.13;2.00;;;;;;;6.64;42.05;102454.72;10559578;28;20190;-83
2022/01/11 23:06:01;;;;;;;2.80;1.63;;;;;;;6.54;42.02;102460.06;10442713;28;20699;-84
2022/01/11 23:11:03;;;;;;;4.40;2.10;;;;;;;6.57;41.71;102459.59;10458906;28;20202;-83
2022/01/11 23:16:07;;;;;;;2.30;1.60;;;;;;;6.27;43.19;102475.59;10474682;28;20585;-84
2022/01/11 23:21:09;;;;;;;2.83;1.70;;;;;;;6.05;42.95;102478.09;10483886;28;20217;-83
2022/01/11 23:26:12;;;;;;;1.97;1.33;;;;;;;6.35;42.33;102470.47;10484389;28;20265;-84
2022/01/11 23:31:14;;;;;;;2.00;1.30;;;;;;;6.49;42.81;102457.13;10483629;28;20236;-83
2022/01/11 23:36:17;;;;;;;3.20;1.70;;;;;;;6.67;42.23;102456.16;10482351;28;20204;-84
2022/01/11 23:41:35;;;;;;;2.93;1.30;;;;;;;7.00;40.79;102455.50;10481869;28;20233;-84
2022/01/11 23:46:37;;;;;;;3.03;1.33;;;;;;;6.68;41.51;102455.94;10492630;28;20248;-83
2022/01/11 23:51:39;;;;;;;4.63;2.23;;;;;;;6.96;41.63;102452.38;10524537;28;20572;-84
2022/01/11 23:56:43;;;;;;;2.77;1.50;;;;;;;6.15;43.23;102456.88;10507269;28;20203;-84
